Latest Weather Observations for Coldstream

IDV60801

Issued at 4:52 pm EDT Thursday 28 January 2021 (issued every 10 minutes, with the page automatically refreshed every 10 minutes)

About weather observations | Map of weather stations | Latest weather observations for VIC | Other Formats
Station Details ID: 086383 Name: COLDSTREAM Lat: -37.72 Lon: 145.41 Height: 83.0 m
Data from the previous 72 hours. | See also: Recent months at Coldstream
Date/Time
EDT
Temp
°C
App
Temp
°C
Dew
Point
°C
Rel
Hum
%
Delta-T
°C
Wind Press
QNH
hPa
Press
MSL
hPa
Rain since
9am
mm
Dir  Spd
km/h
Gust
km/h
Spd
kts
Gust
kts
28/04:30pm 22.8 20.8 14.9 61 4.7 ESE 19 30 10 16 1015.3 1015.0 0.0
28/04:00pm 23.2 20.9 14.7 58 5.0 ESE 20 30 11 16 1015.2 1014.9 0.0
28/03:30pm 22.7 20.9 14.5 60 4.8 SE 17 28 9 15 1016.0 1015.7 0.0
28/03:00pm 23.1 19.6 14.4 58 5.1 ESE 26 35 14 19 1015.5 1015.2 0.0
28/02:30pm 23.2 20.1 14.5 58 5.2 ESE 24 41 13 22 1015.7 1015.4 0.0
28/02:00pm 24.0 22.2 15.5 59 5.1 SE 19 30 10 16 1016.1 1015.8 0.0
28/01:30pm 23.5 21.3 15.0 59 5.1 SE 20 32 11 17 1016.2 1015.9 0.0
28/01:00pm 23.4 22.0 15.5 61 4.8 SE 17 30 9 16 1016.4 1016.1 0.0
28/12:30pm 23.2 22.2 15.5 62 4.6 SE 15 20 8 11 1016.7 1016.4 0.0
28/12:00pm 22.9 21.5 15.5 63 4.4 SE 17 30 9 16 1016.8 1016.5 0.0
28/11:30am 22.7 21.5 15.0 61 4.6 SE 15 30 8 16 1016.9 1016.6 0.0
28/11:00am 22.2 20.1 14.8 63 4.4 SE 19 28 10 15 1017.0 1016.7 0.0
28/10:30am 21.7 19.8 14.1 62 4.4 SE 17 28 9 15 1016.9 1016.6 0.0
28/10:00am 21.7 19.0 13.6 60 4.7 SE 20 32 11 17 1016.9 1016.6 0.0
28/09:30am 20.9 19.1 13.4 62 4.3 SE 15 22 8 12 1017.2 1016.9 0.0
28/09:00am 20.7 20.1 13.6 64 4.1 SE 9 15 5 8 1017.2 1016.9 0.0
28/08:30am 19.6 19.0 13.5 68 3.5 SE 9 13 5 7 1017.2 1016.9 0.0
28/08:00am 18.7 17.2 13.1 70 3.2 SE 13 19 7 10 1016.8 1016.5 0.0
28/07:30am 17.2 16.3 12.7 75 2.5 SE 9 15 5 8 1016.8 1016.5 0.0
28/07:00am 17.3 16.4 12.6 74 2.6 SSE 9 17 5 9 1016.6 1016.3 0.0
28/06:30am 17.0 16.1 12.7 76 2.4 SE 9 13 5 7 1016.1 1015.8 0.0
28/06:00am 16.0 16.6 13.1 83 1.6 ESE 2 7 1 4 1015.7 1015.4 0.0
28/05:30am 17.3 16.7 12.4 73 2.7 ESE 7 11 4 6 1015.3 1015.0 0.0
28/05:00am 17.3 16.7 12.4 73 2.7 SE 7 11 4 6 1015.0 1014.7 0.0
28/04:30am 17.6 16.6 12.3 71 2.9 SE 9 15 5 8 1015.0 1014.7 0.0
28/04:00am 18.1 16.4 12.3 69 3.2 SE 13 19 7 10 1015.0 1014.7 0.0
28/03:30am 18.3 17.0 12.5 69 3.2 SSE 11 17 6 9 1015.1 1014.8 0.0
28/03:00am 18.1 16.8 12.5 70 3.1 SSE 11 20 6 11 1014.9 1014.6 0.0
28/02:30am 18.0 16.4 12.7 71 3.0 SSE 13 20 7 11 1014.6 1014.3 0.0
28/02:00am 17.8 16.6 12.7 72 2.9 SSE 11 19 6 10 1014.8 1014.5 0.0
28/01:30am 17.8 15.8 12.7 72 2.9 SSE 15 26 8 14 1014.7 1014.4 0.0
28/01:00am 17.6 15.6 12.7 73 2.7 SSE 15 22 8 12 1014.8 1014.5 0.0
28/12:30am 17.6 15.3 12.9 74 2.6 SE 17 30 9 16 1014.7 1014.4 0.0
28/12:00am 17.9 15.2 13.0 73 2.8 SSE 19 30 10 16 1014.4 1014.1 0.0
 
Date/Time
EDT
Temp
°C
App
Temp
°C
Dew
Point
°C
Rel
Hum
%
Delta-T
°C
Wind Press
QNH
hPa
Press
MSL
hPa
Rain since
9am
mm
Dir  Spd
km/h
Gust
km/h
Spd
kts
Gust
kts
27/11:30pm 18.2 15.4 13.1 72 2.9 SSE 20 35 11 19 1014.4 1014.1 0.0
27/11:00pm 18.4 15.5 12.8 70 3.1 SSE 20 33 11 18 1014.7 1014.4 0.0
27/10:30pm 18.8 15.8 12.5 67 3.5 SSE 20 35 11 19 1014.7 1014.4 0.0
27/10:00pm 18.7 15.7 12.5 67 3.5 SSE 20 32 11 17 1013.9 1013.7 0.0
27/09:30pm 18.9 15.9 12.4 66 3.6 SSE 20 33 11 18 1013.5 1013.3 0.0
27/09:00pm 19.5 15.6 12.0 62 4.2 SSE 24 35 13 19 1013.3 1013.1 0.0
27/08:30pm 20.3 15.9 11.8 58 4.7 SSE 26 43 14 23 1013.0 1012.8 0.0
27/08:00pm 21.6 16.7 11.3 52 5.7 SE 28 43 15 23 1012.7 1012.5 0.0
27/07:30pm 22.8 18.6 11.2 48 6.5 SE 24 39 13 21 1012.8 1012.6 0.0
27/07:00pm 23.7 18.9 10.4 43 7.4 SE 26 41 14 22 1012.3 1012.1 0.0
27/06:30pm 24.4 20.5 9.6 39 8.1 SE 20 39 11 21 1012.3 1012.1 0.0
27/06:00pm 24.8 21.2 9.9 39 8.2 SSE 19 37 10 20 1012.3 1012.1 0.0
27/05:30pm 24.9 20.8 8.0 34 9.0 SSE 19 30 10 16 1012.3 1012.1 0.0
27/05:00pm 24.6 20.3 6.8 32 9.3 SSE 19 32 10 17 1012.7 1012.5 0.0
27/04:30pm 24.8 20.3 7.0 32 9.3 SSE 20 32 11 17 1012.9 1012.7 0.0
27/04:00pm 24.4 20.0 7.5 34 8.9 SSE 20 35 11 19 1013.2 1013.0 0.0
27/03:30pm 23.6 19.1 8.5 38 8.1 SSE 22 37 12 20 1013.6 1013.4 0.0
27/03:00pm 23.5 19.9 10.6 44 7.2 SSE 20 37 11 20 1013.9 1013.7 0.0
27/02:30pm 23.0 19.4 10.4 45 6.9 SSE 20 28 11 15 1014.3 1014.0 0.0
27/02:00pm 22.0 18.3 7.8 40 7.4 SSE 17 30 9 16 1014.5 1014.2 0.0
27/01:30pm 21.3 17.5 7.5 41 7.1 SSE 17 32 9 17 1014.8 1014.5 0.0
27/01:00pm 20.6 16.8 7.6 43 6.7 S 17 30 9 16 1015.1 1014.8 0.0
27/12:30pm 20.2 16.5 7.9 45 6.4 SSE 17 28 9 15 1015.4 1015.1 0.0
27/12:00pm 19.4 15.8 8.4 49 5.7 SSE 17 28 9 15 1016.0 1015.7 0.0
27/11:30am 18.8 15.0 7.6 48 5.7 SSE 17 28 9 15 1015.9 1015.6 0.0
27/11:00am 17.2 13.4 7.5 53 4.9 SSE 17 28 9 15 1016.1 1015.8 0.0
27/10:30am 17.2 12.8 7.3 52 5.0 SE 20 35 11 19 1016.2 1015.9 0.0
27/10:00am 16.7 12.6 7.9 56 4.5 SE 19 30 10 16 1016.2 1015.9 0.0
27/09:30am 15.3 11.0 6.8 57 4.2 SSE 19 32 10 17 1016.1 1015.8 0.0
27/09:00am 14.5 10.6 7.1 61 3.6 SSE 17 28 9 15 1016.1 1015.8 3.0
27/08:30am 14.2 11.4 7.0 62 3.5 SSE 11 19 6 10 1016.0 1015.7 3.0
27/08:00am 13.6 10.4 6.7 63 3.3 SSE 13 20 7 11 1015.8 1015.5 3.0
27/07:30am 13.0 9.7 6.6 65 3.1 SE 13 22 7 12 1015.7 1015.4 3.0
27/07:00am 12.9 9.5 6.0 63 3.3 SSE 13 24 7 13 1015.4 1015.1 3.0
27/06:30am 12.8 9.9 6.4 65 3.1 SSE 11 17 6 9 1015.1 1014.8 3.0
27/06:00am 12.8 9.4 5.9 63 3.3 SSE 13 19 7 10 1014.5 1014.2 3.0
27/05:30am 12.8 9.5 6.2 64 3.1 SSE 13 24 7 13 1013.8 1013.6 3.0
27/05:00am 12.8 9.5 6.4 65 3.1 SSE 13 26 7 14 1013.4 1013.2 3.0
27/04:30am 12.8 9.9 6.6 66 3.0 SSE 11 19 6 10 1013.3 1013.1 3.0
27/04:00am 12.8 10.0 6.8 67 2.9 SSE 11 24 6 13 1013.3 1013.1 3.0
27/03:30am 13.0 10.8 7.7 70 2.6 S 9 13 5 7 1013.3 1013.1 3.0
27/03:00am 13.1 10.4 7.5 69 2.7 SSE 11 20 6 11 1013.5 1013.3 3.0
27/02:30am 13.2 10.9 8.9 75 2.2 S 11 19 6 10 1013.3 1013.1 3.0
27/02:00am 13.3 10.5 8.6 73 2.4 S 13 22 7 12 1013.0 1012.8 3.0
27/01:30am 13.7 11.1 9.2 74 2.3 SSE 13 22 7 12 1012.9 1012.7 3.0
27/01:00am 14.0 12.2 9.6 75 2.3 S 9 15 5 8 1013.0 1012.8 3.0
27/12:30am 14.1 11.9 9.3 73 2.5 SSE 11 19 6 10 1012.8 1012.6 3.0
27/12:00am 14.3 11.7 9.5 73 2.5 SSE 13 22 7 12 1012.5 1012.3 3.0
 
Date/Time
EDT
Temp
°C
App
Temp
°C
Dew
Point
°C
Rel
Hum
%
Delta-T
°C
Wind Press
QNH
hPa
Press
MSL
hPa
Rain since
9am
mm
Dir  Spd
km/h
Gust
km/h
Spd
kts
Gust
kts
26/11:30pm 14.3 12.0 10.3 77 2.1 SSE 13 20 7 11 1012.2 1012.0 3.0
26/11:00pm 14.5 11.9 10.7 78 2.0 S 15 24 8 13 1012.0 1011.8 3.0
26/10:30pm 14.8 12.7 11.2 79 1.9 S 13 26 7 14 1011.6 1011.4 3.0
26/10:00pm 14.9 13.4 11.9 82 1.6 S 11 19 6 10 1011.2 1011.0 3.0
26/09:30pm 15.5 13.7 12.1 80 1.9 S 13 24 7 13 1010.5 1010.3 3.0
26/09:00pm 16.0 15.1 12.7 81 1.8 S 9 15 5 8 1009.9 1009.7 3.0
26/08:30pm 17.0 15.7 12.5 75 2.5 S 11 19 6 10 1009.5 1009.3 3.0
26/08:00pm 17.5 15.9 11.5 68 3.3 SSE 11 17 6 9 1009.0 1008.7 3.0
26/07:30pm 17.9 17.3 12.4 70 3.1 SSE 7 13 4 7 1008.6 1008.3 3.0
26/07:00pm 18.1 17.7 12.5 70 3.1 S 6 9 3 5 1008.2 1007.9 3.0
26/06:30pm 17.9 16.8 12.1 69 3.2 S 9 13 5 7 1007.8 1007.5 3.0
26/06:00pm 17.7 16.4 12.6 72 2.9 SSE 11 19 6 10 1007.4 1007.1 3.0
26/05:30pm 17.8 17.6 14.7 82 1.8 SSE 9 15 5 8 1007.2 1006.9 3.0
26/05:00pm 17.1 15.9 14.0 82 1.8 SSE 13 19 7 10 1006.9 1006.6 3.0
26/04:30pm 16.9 15.8 14.4 85 1.4 S 13 22 7 12 1006.7 1006.4 3.0
26/04:00pm 17.8 16.4 14.5 81 1.9 S 15 22 8 12 1006.3 1006.0 3.0
26/03:30pm 18.4 18.4 15.1 81 1.9 SSE 9 19 5 10 1006.1 1005.8 3.0
26/03:00pm 18.0 17.3 15.3 84 1.6 SSE 13 19 7 10 1005.9 1005.6 3.0
26/02:30pm 18.2 19.2 16.9 92 0.8 SSW 7 17 4 9 1005.9 1005.6 3.0
26/02:00pm 17.8 18.0 16.8 94 0.6 SSE 11 22 6 12 1005.3 1005.0 3.0
26/01:30pm 17.6 15.6 17.3 98 0.2 WSW 24 39 13 21 1005.1 1004.8 2.4
26/01:00pm 19.0 19.7 18.8 99 0.1 SW 13 24 7 13 1004.6 1004.3 2.4
26/12:30pm 19.3 20.1 19.0 98 0.2 SW 13 24 7 13 1004.1 1003.8 2.4
26/12:00pm 18.6 20.3 18.6 100 0.0 SSW 7 13 4 7 1003.9 1003.6 2.2
26/11:30am 18.6 20.3 18.6 100 0.0 WSW 7 11 4 6 1003.5 1003.2 1.2
26/11:00am 18.8 20.5 18.6 99 0.1 SSW 7 15 4 8 1003.3 1003.0 0.4
26/10:30am 18.4 19.2 18.2 99 0.1 S 11 17 6 9 1003.0 1002.7 0.4
26/10:00am 18.4 19.3 18.4 100 0.0 SSE 11 19 6 10 1002.7 1002.4 0.4
26/09:30am 18.5 20.8 18.5 100 0.0 SE 4 7 2 4 1002.6 1002.3 0.2
26/09:00am 18.4 20.1 18.4 100 0.0 SE 7 13 4 7 1002.1 1001.8 30.2
26/08:30am 18.8 20.6 18.8 100 0.0 WSW 7 11 4 6 1001.7 1001.4 29.0
26/08:00am 18.7 19.3 18.7 100 0.0 WSW 13 20 7 11 1000.9 1000.7 28.0
26/07:30am 18.9 19.6 18.9 100 0.0 W 13 20 7 11 1000.2 1000.0 27.0
26/07:00am 19.4 20.0 19.4 100 0.0 W 15 22 8 12 999.4 999.2 20.8
26/06:30am 19.7 20.8 19.7 100 0.0 W 13 24 7 13 998.5 998.2 8.4
26/06:00am 20.3 24.1 20.1 99 0.1 CALM 0 0 0 0 997.2 996.9 0.6
26/05:30am 20.9 23.0 19.4 91 1.0 N 7 13 4 7 997.5 997.2 0.0
26/05:00am 20.2 23.9 20.0 99 0.1 CALM 0 0 0 0 997.2 996.9 0.0
26/04:30am 19.9 23.5 19.7 99 0.1 CALM 0 0 0 0 997.3 997.0 0.0
26/04:00am 19.9 23.5 19.7 99 0.1 CALM 0 0 0 0 997.4 997.1 0.0
26/03:30am 19.7 23.0 19.2 97 0.3 CALM 0 0 0 0 997.6 997.3 0.0
26/03:00am 19.7 22.8 19.5 99 0.1 E 2 7 1 4 997.8 997.5 0.0
26/02:30am 19.5 22.9 19.3 99 0.1 CALM 0 6 0 3 998.5 998.2 0.0
26/02:00am 19.6 21.8 19.1 97 0.3 E 6 11 3 6 999.1 998.9 0.0
26/01:30am 19.9 21.7 18.4 91 0.9 NNE 6 11 3 6 999.3 999.1 0.0
26/01:00am 19.8 21.3 18.8 94 0.6 NE 9 15 5 8 999.7 999.5 0.0
26/12:30am 20.1 21.6 17.7 86 1.5 N 6 11 3 6 1000.5 1000.3 0.0
26/12:00am 20.8 22.3 16.6 77 2.6 NNE 4 9 2 5 1000.1 999.9 0.0
 
Date/Time
EDT
Temp
°C
App
Temp
°C
Dew
Point
°C
Rel
Hum
%
Delta-T
°C
Wind Press
QNH
hPa
Press
MSL
hPa
Rain since
9am
mm
Dir  Spd
km/h
Gust
km/h
Spd
kts
Gust
kts
25/11:30pm 21.3 23.4 17.1 77 2.6 WSW 2 11 1 6 1000.4 1000.2 0.0
25/11:00pm 21.7 23.4 16.2 71 3.3 W 2 7 1 4 1000.7 1000.5 0.0
25/10:30pm 22.1 22.4 15.9 68 3.7 W 9 13 5 7 1000.7 1000.5 0.0
25/10:00pm 22.8 22.1 16.4 67 3.9 SW 15 20 8 11 1000.7 1000.5 0.0
25/09:30pm 24.2 24.5 14.6 55 5.7 SW 6 20 3 11 999.7 999.5 0.0
25/09:00pm 24.2 24.5 14.6 55 5.8 S 6 9 3 5 998.9 998.6 0.0
25/08:30pm 24.7 24.5 14.8 54 5.9 S 9 17 5 9 998.5 998.2 0.0
25/08:00pm 25.5 25.2 14.3 50 6.7 SSE 9 15 5 8 998.5 998.2 0.0
25/07:30pm 26.2 26.2 14.3 48 7.1 SE 7 11 4 6 998.2 997.9 0.0
25/07:00pm 26.8 26.3 13.9 45 7.7 SE 9 15 5 8 998.3 998.0 0.0
25/06:30pm 27.4 25.7 13.7 43 8.2 SSE 15 30 8 16 998.9 998.6 0.0
25/06:00pm 27.9 28.2 14.5 44 8.1 SSE 6 17 3 9 998.7 998.4 0.0
25/05:30pm 28.6 24.7 13.3 39 9.1 WSW 26 43 14 23 998.7 998.4 0.0
25/05:29pm 28.7 25.1 13.0 38 9.3 WSW 24 43 13 23 998.7 998.4 0.0
25/05:00pm 31.1 29.7 13.4 34 10.7 SW 13 20 7 11 997.9 997.6 0.0

Other formats

Comma delimited format used in spreadsheet applications
http://www.bom.gov.au/fwo/IDV60801/IDV60801.94864.axf

JavaScript Object Notation format (JSON) in row-major order
http://www.bom.gov.au/fwo/IDV60801/IDV60801.94864.json

Data quality

Most of these data are generated automatically and are frequently updated. Quality checks on data are not normally performed. It is possible for incorrect values to appear. Refer to information at About Latest Weather Observations and please check the disclaimer before using these data.